createdAt,value
2019-05-22T00:02:21.229Z,27.33
2019-05-22T00:05:03.541Z,26.37
2019-05-22T00:07:36.143Z,26.20
2019-05-22T00:10:09.993Z,26.20
2019-05-22T00:12:46.852Z,29.00
2019-05-22T00:15:17.013Z,28.47
2019-05-22T00:17:49.900Z,27.80
2019-05-22T00:20:25.481Z,28.67
2019-05-22T00:22:57.261Z,29.47
2019-05-22T00:25:33.106Z,29.07
2019-05-22T00:28:04.970Z,30.63
2019-05-22T00:30:37.568Z,30.13
2019-05-22T00:33:09.845Z,31.30
2019-05-22T00:35:42.597Z,30.37
2019-05-22T00:38:15.308Z,30.77
2019-05-22T00:40:55.225Z,30.30
2019-05-22T00:43:31.729Z,30.43
2019-05-22T00:46:05.527Z,29.20
2019-05-22T00:48:38.636Z,29.50
2019-05-22T00:51:22.683Z,27.00
2019-05-22T00:54:00.038Z,26.90
2019-05-22T00:56:33.532Z,26.30
2019-05-22T00:59:26.730Z,24.97
2019-05-22T01:02:04.492Z,26.00
2019-05-22T01:04:39.244Z,27.53
2019-05-22T01:07:18.516Z,27.00
2019-05-22T01:09:52.945Z,27.47
2019-05-22T01:12:33.732Z,28.73
2019-05-22T01:15:08.481Z,28.60
2019-05-22T01:17:40.855Z,28.83
2019-05-22T01:20:18.199Z,30.37
2019-05-22T01:22:49.337Z,31.37
2019-05-22T01:25:24.535Z,31.43
2019-05-22T01:27:58.142Z,31.70
2019-05-22T01:30:39.703Z,32.63
2019-05-22T01:33:16.786Z,34.17
2019-05-22T01:35:50.461Z,31.80
2019-05-22T01:38:23.832Z,33.10
2019-05-22T01:41:08.374Z,32.10
2019-05-22T01:43:40.423Z,30.80
2019-05-22T01:46:12.712Z,32.27
2019-05-22T01:48:45.735Z,30.43
2019-05-22T01:51:18.361Z,32.27
2019-05-22T01:53:52.059Z,30.87
2019-05-22T01:56:25.170Z,31.47
2019-05-22T01:58:56.314Z,32.17
2019-05-22T02:01:30.522Z,31.47
2019-05-22T02:04:02.200Z,32.17
2019-05-22T02:06:34.743Z,32.30
2019-05-22T02:09:34.028Z,31.43
2019-05-22T02:12:14.008Z,32.27
2019-05-22T02:14:50.586Z,31.37
2019-05-22T02:17:27.101Z,31.03
2019-05-22T02:19:59.418Z,30.13
2019-05-22T02:22:32.529Z,28.97
2019-05-22T02:25:05.450Z,26.80
2019-05-22T02:27:36.750Z,26.60
2019-05-22T02:30:10.704Z,25.87
2019-05-22T02:32:42.540Z,25.37
2019-05-22T02:35:13.981Z,24.47
2019-05-22T02:37:44.740Z,24.83
2019-05-22T02:40:25.963Z,24.13
2019-05-22T02:42:57.946Z,23.70
2019-05-22T02:45:30.699Z,24.63
2019-05-22T02:48:03.831Z,25.90
2019-05-22T02:50:34.877Z,23.30
2019-05-22T02:53:10.239Z,25.17
2019-05-22T02:55:42.136Z,23.67
2019-05-22T02:58:14.221Z,24.83
2019-05-22T03:01:03.126Z,24.90
2019-05-22T03:03:35.822Z,26.60
2019-05-22T03:06:13.142Z,24.67
2019-05-22T03:08:57.242Z,24.60
2019-05-22T03:11:35.194Z,25.03
2019-05-22T03:14:09.609Z,22.07
2019-05-22T03:16:56.625Z,21.23
2019-05-22T03:19:39.238Z,21.30
2019-05-22T03:22:39.675Z,21.67
2019-05-22T03:25:14.574Z,21.57
2019-05-22T03:27:52.404Z,22.20
2019-05-22T03:30:34.894Z,19.87
2019-05-22T03:33:11.790Z,19.90
2019-05-22T03:35:50.518Z,19.93
2019-05-22T03:38:21.868Z,20.07
2019-05-22T03:40:55.054Z,19.47
2019-05-22T03:43:28.467Z,20.63
2019-05-22T03:46:05.401Z,21.13
2019-05-22T03:48:38.104Z,20.33
2019-05-22T03:51:15.072Z,21.27
2019-05-22T03:53:47.930Z,23.07
2019-05-22T03:56:20.779Z,23.53
2019-05-22T03:58:52.018Z,22.00
2019-05-22T04:01:23.417Z,23.47
2019-05-22T04:03:54.900Z,23.83
2019-05-22T04:06:26.072Z,24.47
2019-05-22T04:08:59.847Z,25.53
2019-05-22T04:11:35.469Z,23.53
2019-05-22T04:14:06.744Z,24.93
2019-05-22T04:16:38.215Z,25.13
2019-05-22T04:19:09.190Z,24.53
2019-05-22T04:21:40.322Z,24.50
2019-05-22T04:24:11.730Z,24.57
2019-05-22T04:26:43.540Z,23.27
2019-05-22T04:29:14.362Z,24.70
2019-05-22T04:31:59.166Z,20.60
2019-05-22T04:34:31.568Z,24.30
2019-05-22T04:37:03.605Z,23.83
2019-05-22T04:39:37.219Z,24.90
2019-05-22T04:42:12.892Z,24.17
2019-05-22T04:45:09.242Z,24.37
2019-05-22T04:47:41.547Z,24.77
2019-05-22T04:50:12.784Z,25.40
2019-05-22T04:52:43.751Z,24.80
2019-05-22T04:55:15.092Z,25.77
2019-05-22T04:57:46.448Z,25.83
2019-05-22T05:00:18.984Z,27.33
2019-05-22T05:02:50.214Z,24.13
2019-05-22T05:05:25.015Z,24.97
2019-05-22T05:07:56.720Z,25.33
2019-05-22T05:10:27.830Z,26.20
2019-05-22T05:13:00.673Z,27.17
2019-05-22T05:15:31.360Z,30.73
2019-05-22T05:18:03.415Z,31.87
2019-05-22T05:20:34.506Z,34.97
2019-05-22T05:23:05.260Z,35.50
2019-05-22T05:25:36.058Z,34.10
2019-05-22T05:28:09.186Z,36.17
2019-05-22T05:30:40.022Z,34.70
2019-05-22T05:33:11.853Z,32.70
2019-05-22T05:35:44.351Z,33.47
2019-05-22T05:38:18.203Z,33.60
2019-05-22T05:40:49.633Z,28.30
2019-05-22T05:43:23.017Z,26.67
2019-05-22T05:45:54.685Z,27.30
2019-05-22T05:48:28.203Z,24.57
2019-05-22T05:51:12.604Z,24.40
2019-05-22T05:54:01.451Z,23.07
2019-05-22T05:56:35.716Z,22.57
2019-05-22T05:59:08.824Z,27.23
2019-05-22T06:01:42.787Z,35.73
2019-05-22T06:04:16.412Z,36.20
2019-05-22T06:07:00.749Z,36.17
2019-05-22T06:09:32.708Z,35.83
2019-05-22T06:12:06.106Z,33.43
2019-05-22T06:14:38.534Z,29.73
2019-05-22T06:17:39.349Z,30.87
2019-05-22T06:20:17.375Z,30.13
2019-05-22T06:23:08.953Z,29.13
2019-05-22T06:25:40.307Z,28.03
2019-05-22T06:28:11.982Z,26.40
2019-05-22T06:30:46.521Z,25.97
2019-05-22T06:33:36.720Z,25.80
2019-05-22T06:36:13.259Z,25.30
2019-05-22T06:38:53.427Z,26.57
2019-05-22T06:41:28.156Z,31.80
2019-05-22T06:44:21.222Z,33.13
2019-05-22T06:46:52.052Z,34.03
2019-05-22T06:49:37.114Z,34.43
2019-05-22T06:52:10.510Z,35.47
2019-05-22T06:54:41.477Z,35.00
2019-05-22T06:57:18.337Z,33.93
2019-05-22T07:00:11.343Z,34.73
2019-05-22T07:02:26.543Z,34.13
2019-05-22T07:04:57.660Z,33.97
2019-05-22T07:07:29.313Z,35.33
2019-05-22T07:10:00.554Z,31.73
2019-05-22T07:12:32.068Z,32.47
2019-05-22T07:15:11.762Z,35.23
2019-05-22T07:17:43.950Z,34.20
2019-05-22T07:20:15.938Z,36.77
2019-05-22T07:22:47.686Z,37.30
2019-05-22T07:25:20.735Z,37.83
2019-05-22T07:27:51.615Z,37.73
2019-05-22T07:30:23.392Z,38.30
2019-05-22T07:32:55.824Z,39.13
2019-05-22T07:35:45.687Z,40.00
2019-05-22T07:38:02.090Z,38.07
2019-05-22T07:40:35.847Z,37.67
2019-05-22T07:43:07.793Z,36.93
2019-05-22T07:45:40.488Z,36.83
2019-05-22T07:48:14.012Z,35.43
2019-05-22T07:50:48.799Z,34.37
2019-05-22T07:53:19.299Z,36.87
2019-05-22T07:55:52.665Z,36.30
2019-05-22T07:58:26.723Z,37.43
2019-05-22T08:00:59.227Z,36.87
2019-05-22T08:03:31.932Z,36.67
2019-05-22T08:06:03.237Z,36.60
2019-05-22T08:08:37.520Z,35.63
2019-05-22T08:11:10.378Z,36.40
2019-05-22T08:13:42.393Z,35.77
2019-05-22T08:16:13.912Z,36.63
2019-05-22T08:18:45.514Z,34.17
2019-05-22T08:21:17.161Z,37.63
2019-05-22T08:23:48.343Z,35.60
2019-05-22T08:26:21.378Z,35.17
2019-05-22T08:28:53.252Z,35.80
2019-05-22T08:31:26.491Z,36.07
2019-05-22T08:33:58.453Z,37.00
2019-05-22T08:36:30.877Z,36.30
2019-05-22T08:39:04.054Z,35.70
2019-05-22T08:41:39.179Z,34.10
2019-05-22T08:44:16.929Z,35.57
2019-05-22T08:46:44.008Z,36.07
2019-05-22T08:49:15.879Z,33.77
2019-05-22T08:51:47.535Z,34.57
2019-05-22T08:54:19.536Z,32.60
2019-05-22T08:56:52.453Z,30.27
2019-05-22T08:59:23.877Z,30.77
2019-05-22T09:01:55.262Z,29.07
2019-05-22T09:04:27.100Z,27.80
2019-05-22T09:06:57.836Z,26.23
2019-05-22T09:09:29.008Z,26.43
2019-05-22T09:12:00.017Z,27.43
2019-05-22T09:14:31.313Z,23.90
2019-05-22T09:17:02.695Z,21.73
2019-05-22T09:19:33.725Z,22.33
2019-05-22T09:22:05.141Z,19.70
2019-05-22T09:24:39.047Z,21.00
2019-05-22T09:27:10.009Z,21.23
2019-05-22T09:29:40.723Z,21.27
2019-05-22T09:32:11.461Z,21.50
2019-05-22T09:34:42.572Z,22.57
2019-05-22T09:37:13.499Z,22.97
2019-05-22T09:39:44.218Z,24.13
2019-05-22T09:42:16.005Z,23.33
2019-05-22T09:44:46.746Z,24.37
2019-05-22T09:47:21.387Z,23.90
2019-05-22T09:49:52.862Z,24.70
2019-05-22T09:52:24.262Z,23.87
2019-05-22T09:54:56.246Z,21.63
2019-05-22T09:57:27.440Z,20.67
2019-05-22T09:59:58.097Z,21.87
2019-05-22T10:02:30.277Z,21.33
2019-05-22T10:05:01.549Z,21.70
2019-05-22T10:07:34.346Z,21.70
2019-05-22T10:10:07.545Z,21.97
2019-05-22T10:12:38.410Z,21.77
2019-05-22T10:15:11.946Z,21.60
2019-05-22T10:17:50.123Z,21.03
2019-05-22T10:20:21.802Z,20.80
2019-05-22T10:22:52.658Z,21.60
2019-05-22T10:25:24.470Z,21.90
2019-05-22T10:27:59.143Z,21.73
2019-05-22T10:30:29.464Z,23.10
2019-05-22T10:33:00.259Z,23.77
2019-05-22T10:35:32.891Z,23.27
2019-05-22T10:38:03.779Z,25.37
2019-05-22T10:40:34.549Z,25.57
2019-05-22T10:43:05.693Z,24.17
2019-05-22T10:45:37.273Z,25.40
2019-05-22T10:48:08.856Z,26.10
2019-05-22T10:50:39.567Z,27.77
2019-05-22T10:53:11.338Z,27.30
2019-05-22T10:55:42.043Z,27.67
2019-05-22T10:58:13.396Z,29.23
2019-05-22T11:00:44.409Z,30.03
2019-05-22T11:03:16.216Z,29.27
2019-05-22T11:06:03.839Z,30.60
2019-05-22T11:08:20.664Z,30.77
2019-05-22T11:10:52.307Z,29.53
2019-05-22T11:13:23.154Z,29.40
2019-05-22T11:15:54.326Z,31.27
2019-05-22T11:18:25.628Z,26.97
2019-05-22T11:20:56.978Z,26.73
2019-05-22T11:23:28.441Z,26.43
2019-05-22T11:25:59.897Z,25.80
2019-05-22T11:28:31.657Z,25.00
2019-05-22T11:31:04.430Z,26.27
2019-05-22T11:33:36.053Z,24.13
2019-05-22T11:36:06.817Z,25.93
2019-05-22T11:38:37.950Z,24.97
2019-05-22T11:41:08.973Z,23.60
2019-05-22T11:43:41.045Z,22.80
2019-05-22T11:46:12.821Z,22.17
2019-05-22T11:48:44.029Z,22.30
2019-05-22T11:51:15.320Z,23.13
2019-05-22T11:53:46.089Z,21.77
2019-05-22T11:56:18.310Z,20.43
2019-05-22T11:58:49.627Z,19.93
2019-05-22T12:01:20.677Z,21.00
2019-05-22T12:03:52.849Z,20.40
2019-05-22T12:06:24.479Z,21.37
2019-05-22T12:08:56.185Z,21.97
2019-05-22T12:11:27.909Z,23.23
2019-05-22T12:13:59.671Z,23.63
2019-05-22T12:16:32.339Z,22.20
2019-05-22T12:19:03.756Z,23.20
2019-05-22T12:21:35.568Z,24.17
2019-05-22T12:24:07.021Z,23.83
2019-05-22T12:26:39.143Z,22.20
2019-05-22T12:29:10.433Z,23.97
2019-05-22T12:31:42.118Z,22.50
2019-05-22T12:34:13.461Z,22.67
2019-05-22T12:36:45.206Z,23.43
2019-05-22T12:39:18.722Z,21.90
2019-05-22T12:41:49.412Z,22.67
2019-05-22T12:44:21.513Z,22.47
2019-05-22T12:46:52.290Z,22.50
2019-05-22T12:49:24.076Z,24.17
2019-05-22T12:51:55.714Z,23.50
2019-05-22T12:54:43.394Z,24.70
2019-05-22T12:56:59.380Z,24.57
2019-05-22T12:59:30.766Z,24.03
2019-05-22T13:02:02.474Z,23.80
2019-05-22T13:04:34.695Z,21.00
2019-05-22T13:07:06.665Z,20.53
2019-05-22T13:09:38.893Z,20.97
2019-05-22T13:12:12.768Z,22.13
2019-05-22T13:14:44.001Z,20.97
2019-05-22T13:17:15.975Z,21.70
2019-05-22T13:19:48.351Z,20.77
2019-05-22T13:22:23.992Z,20.70
2019-05-22T13:24:56.306Z,20.53
2019-05-22T13:27:28.241Z,18.70
2019-05-22T13:30:03.292Z,18.93
2019-05-22T13:32:36.100Z,17.97
2019-05-22T13:35:10.416Z,17.93
2019-05-22T13:37:41.616Z,18.47
2019-05-22T13:40:26.952Z,17.43
2019-05-22T13:42:47.302Z,19.20
2019-05-22T13:45:29.097Z,18.33
2019-05-22T13:47:54.034Z,17.37
2019-05-22T13:50:28.835Z,19.27
2019-05-22T13:53:03.834Z,16.80
2019-05-22T13:55:36.035Z,18.70
2019-05-22T13:58:08.619Z,18.17
2019-05-22T14:00:40.957Z,17.23
2019-05-22T14:03:12.743Z,18.00
2019-05-22T14:05:45.980Z,17.33
2019-05-22T14:08:17.397Z,19.03
2019-05-22T14:10:50.001Z,17.87
2019-05-22T14:13:23.391Z,18.60
2019-05-22T14:15:56.936Z,18.13
2019-05-22T14:18:27.822Z,17.57
2019-05-22T14:20:59.130Z,19.33
2019-05-22T14:23:31.243Z,21.20
2019-05-22T14:26:03.500Z,20.13
2019-05-22T14:28:35.668Z,19.97
2019-05-22T14:31:06.653Z,17.97
2019-05-22T14:33:40.619Z,18.43
2019-05-22T14:36:11.424Z,18.77
2019-05-22T14:38:43.126Z,19.27
2019-05-22T14:41:15.063Z,20.00
2019-05-22T14:43:45.827Z,18.20
2019-05-22T14:46:16.935Z,17.87
2019-05-22T14:48:47.697Z,17.77
2019-05-22T14:51:20.849Z,17.90
2019-05-22T14:53:55.094Z,19.27
2019-05-22T14:56:27.401Z,19.67
2019-05-22T14:58:59.037Z,19.80
2019-05-22T15:01:30.267Z,19.67
2019-05-22T15:04:01.614Z,17.73
2019-05-22T15:06:32.835Z,18.83
2019-05-22T15:09:04.911Z,17.90
2019-05-22T15:11:36.951Z,19.90
2019-05-22T15:14:08.978Z,19.23
2019-05-22T15:16:40.004Z,19.67
2019-05-22T15:19:10.922Z,20.90
2019-05-22T15:21:41.656Z,20.07
2019-05-22T15:24:14.330Z,19.97
2019-05-22T15:26:45.747Z,21.23
2019-05-22T15:29:16.808Z,22.13
2019-05-22T15:31:49.183Z,23.37
2019-05-22T15:34:20.635Z,24.47
2019-05-22T15:36:51.972Z,23.83
2019-05-22T15:39:25.961Z,24.50
2019-05-22T15:41:58.076Z,23.83
2019-05-22T15:44:30.030Z,23.67
2019-05-22T15:47:01.868Z,23.23
2019-05-22T15:49:34.459Z,24.27
2019-05-22T15:52:09.710Z,23.93
2019-05-22T15:54:41.954Z,23.87
2019-05-22T15:57:13.490Z,23.43
2019-05-22T15:59:46.892Z,23.80
2019-05-22T16:02:21.777Z,23.77
2019-05-22T16:04:53.460Z,24.43
2019-05-22T16:07:24.550Z,24.20
2019-05-22T16:09:56.002Z,24.23
2019-05-22T16:12:28.436Z,23.83
2019-05-22T16:15:02.108Z,22.80
2019-05-22T16:17:34.414Z,23.13
2019-05-22T16:20:10.113Z,23.67
2019-05-22T16:22:42.021Z,23.00
2019-05-22T16:25:13.539Z,21.13
2019-05-22T16:27:45.169Z,22.17
2019-05-22T16:30:17.455Z,22.00
2019-05-22T16:32:48.815Z,23.70
2019-05-22T16:35:21.255Z,23.57
2019-05-22T16:37:52.129Z,23.73
2019-05-22T16:40:24.399Z,25.43
2019-05-22T16:42:57.046Z,24.43
2019-05-22T16:45:28.477Z,24.20
2019-05-22T16:48:02.751Z,24.40
2019-05-22T16:50:34.643Z,26.00
2019-05-22T16:53:13.561Z,24.30
2019-05-22T16:55:45.898Z,25.77
2019-05-22T16:58:17.507Z,24.50
2019-05-22T17:00:50.035Z,24.70
2019-05-22T17:03:22.929Z,24.53
2019-05-22T17:05:55.373Z,25.70
2019-05-22T17:08:29.708Z,25.37
2019-05-22T17:11:04.611Z,26.03
2019-05-22T17:13:37.224Z,25.90
2019-05-22T17:16:09.041Z,25.00
2019-05-22T17:18:48.092Z,23.97
2019-05-22T17:21:19.799Z,24.97
2019-05-22T17:23:52.042Z,24.67
2019-05-22T17:26:24.842Z,23.37
2019-05-22T17:28:57.039Z,24.73
2019-05-22T17:31:31.714Z,23.87
2019-05-22T17:34:07.553Z,23.53
2019-05-22T17:36:41.037Z,25.20
2019-05-22T17:39:15.674Z,25.17
2019-05-22T17:41:48.791Z,25.50
2019-05-22T17:44:24.416Z,26.37
2019-05-22T17:46:55.976Z,25.17
2019-05-22T17:49:27.212Z,25.83
2019-05-22T17:51:58.350Z,25.73
2019-05-22T17:54:30.492Z,25.80
2019-05-22T17:57:02.412Z,26.53
2019-05-22T17:59:33.680Z,26.47
2019-05-22T18:02:10.375Z,26.90
2019-05-22T18:04:43.079Z,26.60
2019-05-22T18:07:14.836Z,27.73
2019-05-22T18:09:46.243Z,27.80
2019-05-22T18:12:20.856Z,27.13
2019-05-22T18:14:51.886Z,27.27
2019-05-22T18:17:23.139Z,27.77
2019-05-22T18:19:54.122Z,27.47
2019-05-22T18:22:27.139Z,27.83
2019-05-22T18:24:58.313Z,29.47
2019-05-22T18:27:31.232Z,27.43
2019-05-22T18:30:02.685Z,27.47
2019-05-22T18:32:38.120Z,28.13
2019-05-22T18:35:10.800Z,28.13
2019-05-22T18:37:41.794Z,27.43
2019-05-22T18:40:15.463Z,27.37
2019-05-22T18:42:46.895Z,26.33
2019-05-22T18:45:20.777Z,27.87
2019-05-22T18:47:52.941Z,27.50
2019-05-22T18:50:23.960Z,26.97
2019-05-22T18:52:55.230Z,27.83
2019-05-22T18:55:26.141Z,27.67
2019-05-22T18:57:57.187Z,28.00
2019-05-22T19:00:31.262Z,28.23
2019-05-22T19:03:03.953Z,28.53
2019-05-22T19:05:36.232Z,30.40
2019-05-22T19:08:07.575Z,28.20
2019-05-22T19:10:39.012Z,29.37
2019-05-22T19:13:09.971Z,32.33
2019-05-22T19:15:41.214Z,32.90
2019-05-22T19:18:13.171Z,30.50
2019-05-22T19:20:45.425Z,29.50
2019-05-22T19:23:17.196Z,28.40
2019-05-22T19:25:49.074Z,28.33
2019-05-22T19:28:20.153Z,29.10
2019-05-22T19:30:51.546Z,28.40
2019-05-22T19:33:22.358Z,28.57
2019-05-22T19:35:55.026Z,28.10
2019-05-22T19:38:26.547Z,27.67
2019-05-22T19:40:58.803Z,27.43
2019-05-22T19:43:30.019Z,27.50
2019-05-22T19:46:01.395Z,26.70
2019-05-22T19:48:32.404Z,26.67
2019-05-22T19:51:04.663Z,26.40
2019-05-22T19:53:36.342Z,24.80
2019-05-22T19:56:08.291Z,26.33
2019-05-22T19:58:39.698Z,27.37
2019-05-22T20:01:12.355Z,26.07
2019-05-22T20:03:43.423Z,25.57
2019-05-22T20:06:14.918Z,25.37
2019-05-22T20:08:45.881Z,24.93
2019-05-22T20:11:16.712Z,24.57
2019-05-22T20:13:48.112Z,24.87
2019-05-22T20:16:18.936Z,23.90
2019-05-22T20:18:50.054Z,24.93
2019-05-22T20:21:21.732Z,25.67
2019-05-22T20:23:52.692Z,25.37
2019-05-22T20:26:24.883Z,25.80
2019-05-22T20:28:56.500Z,24.73
2019-05-22T20:31:27.657Z,24.00
2019-05-22T20:33:58.767Z,25.00
2019-05-22T20:36:30.227Z,23.80
2019-05-22T20:39:01.268Z,23.73
2019-05-22T20:41:33.832Z,24.03
2019-05-22T20:44:06.349Z,24.50
2019-05-22T20:46:38.686Z,24.17
2019-05-22T20:49:10.851Z,23.63
2019-05-22T20:51:43.048Z,22.20
2019-05-22T20:54:15.240Z,22.03
2019-05-22T20:56:49.627Z,23.83
2019-05-22T20:59:22.189Z,23.43
2019-05-22T21:01:53.332Z,22.40
2019-05-22T21:04:25.493Z,42.07
2019-05-22T21:07:05.437Z,22.83
2019-05-22T21:09:36.855Z,25.20
2019-05-22T21:12:09.244Z,21.20
2019-05-22T21:14:41.449Z,19.43
2019-05-22T21:17:12.573Z,19.07
2019-05-22T21:19:43.745Z,20.53
2019-05-22T21:22:18.003Z,17.83
2019-05-22T21:24:50.058Z,17.77
2019-05-22T21:27:21.699Z,18.30
2019-05-22T21:29:53.836Z,19.00
2019-05-22T21:32:25.185Z,17.60
2019-05-22T21:34:57.413Z,17.87
2019-05-22T21:37:28.902Z,18.37
2019-05-22T21:39:59.832Z,15.97
2019-05-22T21:42:31.924Z,16.40
2019-05-22T21:45:02.668Z,17.97
2019-05-22T21:47:33.688Z,16.63
2019-05-22T21:50:08.629Z,17.13
2019-05-22T21:52:40.460Z,17.23
2019-05-22T21:55:18.648Z,17.47
2019-05-22T21:57:49.990Z,16.77
2019-05-22T22:00:39.708Z,16.13
2019-05-22T22:03:14.931Z,16.20
2019-05-22T22:05:46.407Z,17.20
2019-05-22T22:08:17.438Z,17.53
2019-05-22T22:10:48.617Z,16.00
2019-05-22T22:13:21.875Z,18.07
2019-05-22T22:15:53.103Z,17.33
2019-05-22T22:18:25.071Z,16.87
2019-05-22T22:20:57.736Z,16.80
2019-05-22T22:23:29.609Z,15.93
2019-05-22T22:26:00.575Z,16.73
2019-05-22T22:28:31.679Z,16.87
2019-05-22T22:31:08.578Z,17.03
2019-05-22T22:33:41.596Z,16.37
2019-05-22T22:36:13.123Z,17.20
2019-05-22T22:38:45.916Z,16.60
2019-05-22T22:41:17.828Z,16.53
2019-05-22T22:43:49.147Z,16.47
2019-05-22T22:46:48.521Z,17.23
2019-05-22T22:49:21.513Z,16.70
2019-05-22T22:51:53.548Z,16.53
2019-05-22T22:54:24.867Z,16.80
2019-05-22T22:56:57.771Z,16.60
2019-05-22T22:59:28.893Z,17.00
2019-05-22T23:02:01.741Z,16.57
2019-05-22T23:04:33.000Z,16.80
2019-05-22T23:07:06.161Z,16.30
2019-05-22T23:09:42.967Z,16.87
2019-05-22T23:12:16.402Z,17.33
2019-05-22T23:14:52.482Z,17.10
2019-05-22T23:17:23.592Z,16.63
2019-05-22T23:19:53.734Z,16.97
2019-05-22T23:22:24.632Z,16.53
2019-05-22T23:24:57.580Z,17.10
2019-05-22T23:27:29.298Z,16.77
2019-05-22T23:30:00.881Z,17.47
2019-05-22T23:32:33.791Z,17.00
2019-05-22T23:35:05.941Z,16.47
2019-05-22T23:37:37.593Z,16.37
2019-05-22T23:40:11.417Z,16.40
2019-05-22T23:42:43.978Z,16.60
2019-05-22T23:45:20.354Z,16.60
2019-05-22T23:48:05.993Z,16.93
2019-05-22T23:50:39.302Z,15.93
2019-05-22T23:53:12.663Z,16.67
2019-05-22T23:55:44.074Z,15.73
2019-05-22T23:58:17.094Z,15.17
